sensor_id;sensor_type;location;lat;lon;timestamp;pressure;altitude;pressure_sealevel;temperature;humidity
67842;BME280;54642;59.126;37.876;2022-09-17T00:01:09;97829.84;;;13.04;77.68
67842;BME280;54642;59.126;37.876;2022-09-17T00:03:39;97835.38;;;12.97;77.96
67842;BME280;54642;59.126;37.876;2022-09-17T00:06:08;97817.03;;;12.83;77.92
67842;BME280;54642;59.126;37.876;2022-09-17T00:08:36;97806.41;;;12.70;77.84
67842;BME280;54642;59.126;37.876;2022-09-17T00:11:10;97839.34;;;12.87;77.86
67842;BME280;54642;59.126;37.876;2022-09-17T00:13:36;97825.97;;;12.77;77.96
67842;BME280;54642;59.126;37.876;2022-09-17T00:16:03;97839.06;;;12.76;78.01
67842;BME280;54642;59.126;37.876;2022-09-17T00:18:29;97838.28;;;12.74;77.79
67842;BME280;54642;59.126;37.876;2022-09-17T00:20:54;97826.81;;;12.61;78.00
67842;BME280;54642;59.126;37.876;2022-09-17T00:23:20;97836.38;;;12.60;78.22
67842;BME280;54642;59.126;37.876;2022-09-17T00:25:46;97815.47;;;12.44;78.06
67842;BME280;54642;59.126;37.876;2022-09-17T00:28:13;97799.59;;;12.33;78.28
67842;BME280;54642;59.126;37.876;2022-09-17T00:30:41;97794.53;;;12.30;78.31
67842;BME280;54642;59.126;37.876;2022-09-17T00:33:09;97849.44;;;12.58;78.48
67842;BME280;54642;59.126;37.876;2022-09-17T00:35:36;97840.09;;;12.54;78.32
67842;BME280;54642;59.126;37.876;2022-09-17T00:38:02;97838.59;;;12.50;78.06
67842;BME280;54642;59.126;37.876;2022-09-17T00:40:28;97839.34;;;12.52;77.98
67842;BME280;54642;59.126;37.876;2022-09-17T00:42:54;97798.28;;;12.24;78.23
67842;BME280;54642;59.126;37.876;2022-09-17T00:45:19;97841.47;;;12.44;77.97
67842;BME280;54642;59.126;37.876;2022-09-17T00:48:02;97834.94;;;12.35;77.88
67842;BME280;54642;59.126;37.876;2022-09-17T00:50:40;97840.22;;;12.34;77.64
67842;BME280;54642;59.126;37.876;2022-09-17T00:53:13;97817.09;;;12.10;77.68
67842;BME280;54642;59.126;37.876;2022-09-17T00:56:02;97856.09;;;12.28;77.54
67842;BME280;54642;59.126;37.876;2022-09-17T00:58:30;97840.38;;;12.12;77.79
67842;BME280;54642;59.126;37.876;2022-09-17T01:00:57;97831.19;;;12.05;77.70
67842;BME280;54642;59.126;37.876;2022-09-17T01:03:24;97859.50;;;12.11;77.56
67842;BME280;54642;59.126;37.876;2022-09-17T01:06:24;97852.66;;;12.08;77.72
67842;BME280;54642;59.126;37.876;2022-09-17T01:20:29;97851.69;;;11.92;77.96
67842;BME280;54642;59.126;37.876;2022-09-17T01:34:19;97841.97;;;11.76;77.76
67842;BME280;54642;59.126;37.876;2022-09-17T01:37:13;97843.53;;;11.80;77.70
67842;BME280;54642;59.126;37.876;2022-09-17T01:39:58;97850.47;;;11.80;77.75
67842;BME280;54642;59.126;37.876;2022-09-17T01:45:20;97805.84;;;11.53;77.78
67842;BME280;54642;59.126;37.876;2022-09-17T01:47:51;97849.06;;;11.73;77.74
67842;BME280;54642;59.126;37.876;2022-09-17T01:50:26;97843.31;;;11.66;77.73
67842;BME280;54642;59.126;37.876;2022-09-17T01:52:55;97810.22;;;11.52;77.52
67842;BME280;54642;59.126;37.876;2022-09-17T01:55:26;97845.75;;;11.69;77.60
67842;BME280;54642;59.126;37.876;2022-09-17T01:58:09;97841.50;;;11.68;78.15
67842;BME280;54642;59.126;37.876;2022-09-17T02:00:39;97849.91;;;11.73;77.93
67842;BME280;54642;59.126;37.876;2022-09-17T02:03:26;97848.22;;;11.72;77.67
67842;BME280;54642;59.126;37.876;2022-09-17T02:06:00;97844.84;;;11.70;77.70
67842;BME280;54642;59.126;37.876;2022-09-17T02:08:40;97813.00;;;11.48;77.70
67842;BME280;54642;59.126;37.876;2022-09-17T02:11:12;97822.41;;;11.50;77.71
67842;BME280;54642;59.126;37.876;2022-09-17T02:13:45;97858.66;;;11.71;77.88
67842;BME280;54642;59.126;37.876;2022-09-17T02:16:20;97870.44;;;11.78;77.84
67842;BME280;54642;59.126;37.876;2022-09-17T02:27:23;97872.63;;;11.68;77.70
67842;BME280;54642;59.126;37.876;2022-09-17T02:29:54;97873.66;;;11.64;77.77
67842;BME280;54642;59.126;37.876;2022-09-17T02:32:20;97824.78;;;11.36;77.72
67842;BME280;54642;59.126;37.876;2022-09-17T02:34:46;97870.56;;;11.56;77.89
67842;BME280;54642;59.126;37.876;2022-09-17T02:37:12;97827.44;;;11.34;77.21
67842;BME280;54642;59.126;37.876;2022-09-17T02:39:38;97822.38;;;11.31;77.65
67842;BME280;54642;59.126;37.876;2022-09-17T02:42:11;97863.50;;;11.59;77.75
67842;BME280;54642;59.126;37.876;2022-09-17T02:58:27;97864.47;;;11.57;77.54
67842;BME280;54642;59.126;37.876;2022-09-17T03:00:59;97866.22;;;11.56;77.81
67842;BME280;54642;59.126;37.876;2022-09-17T03:03:35;97872.31;;;11.55;77.30
67842;BME280;54642;59.126;37.876;2022-09-17T03:06:03;97868.09;;;11.53;77.55
67842;BME280;54642;59.126;37.876;2022-09-17T03:08:39;97873.28;;;11.53;77.51
67842;BME280;54642;59.126;37.876;2022-09-17T03:11:06;97864.44;;;11.38;77.52
67842;BME280;54642;59.126;37.876;2022-09-17T03:13:34;97837.66;;;11.37;77.57
67842;BME280;54642;59.126;37.876;2022-09-17T03:16:04;97874.59;;;11.63;77.57
67842;BME280;54642;59.126;37.876;2022-09-17T03:18:32;97882.44;;;11.61;77.29
67842;BME280;54642;59.126;37.876;2022-09-17T03:20:58;97875.53;;;11.60;77.54
67842;BME280;54642;59.126;37.876;2022-09-17T03:23:24;97882.56;;;11.58;77.23
67842;BME280;54642;59.126;37.876;2022-09-17T03:25:52;97861.56;;;11.44;77.57
67842;BME280;54642;59.126;37.876;2022-09-17T03:28:21;97881.97;;;11.52;77.37
67842;BME280;54642;59.126;37.876;2022-09-17T03:30:47;97895.34;;;11.63;77.52
67842;BME280;54642;59.126;37.876;2022-09-17T03:33:12;97881.53;;;11.62;77.60
67842;BME280;54642;59.126;37.876;2022-09-17T03:35:42;97875.16;;;11.70;76.98
67842;BME280;54642;59.126;37.876;2022-09-17T03:38:08;97876.75;;;11.72;77.03
67842;BME280;54642;59.126;37.876;2022-09-17T03:40:34;97873.59;;;11.66;77.15
67842;BME280;54642;59.126;37.876;2022-09-17T03:43:00;97887.34;;;11.68;77.34
67842;BME280;54642;59.126;37.876;2022-09-17T03:45:26;97875.69;;;11.57;77.38
67842;BME280;54642;59.126;37.876;2022-09-17T03:47:51;97889.16;;;11.66;77.31
67842;BME280;54642;59.126;37.876;2022-09-17T03:50:17;97888.97;;;11.70;77.22
67842;BME280;54642;59.126;37.876;2022-09-17T03:52:43;97890.72;;;11.70;77.14
67842;BME280;54642;59.126;37.876;2022-09-17T03:55:09;97884.97;;;11.63;77.13
67842;BME280;54642;59.126;37.876;2022-09-17T03:57:36;97857.22;;;11.44;77.49
67842;BME280;54642;59.126;37.876;2022-09-17T04:00:03;97878.22;;;11.59;77.34
67842;BME280;54642;59.126;37.876;2022-09-17T04:02:37;97888.31;;;11.65;77.42
67842;BME280;54642;59.126;37.876;2022-09-17T04:05:03;97887.25;;;11.69;77.43
67842;BME280;54642;59.126;37.876;2022-09-17T04:07:29;97892.41;;;11.71;77.11
67842;BME280;54642;59.126;37.876;2022-09-17T04:09:55;97875.53;;;11.60;77.22
67842;BME280;54642;59.126;37.876;2022-09-17T04:12:20;97872.94;;;11.60;77.22
67842;BME280;54642;59.126;37.876;2022-09-17T04:14:46;97890.97;;;11.63;77.30
67842;BME280;54642;59.126;37.876;2022-09-17T04:17:12;97897.94;;;11.63;77.21
67842;BME280;54642;59.126;37.876;2022-09-17T04:19:43;97846.34;;;11.36;77.35
67842;BME280;54642;59.126;37.876;2022-09-17T04:22:09;97885.78;;;11.63;77.19
67842;BME280;54642;59.126;37.876;2022-09-17T04:24:35;97874.44;;;11.66;77.14
67842;BME280;54642;59.126;37.876;2022-09-17T04:27:01;97826.03;;;11.46;77.10
67842;BME280;54642;59.126;37.876;2022-09-17T04:29:27;97881.59;;;11.80;76.93
67842;BME280;54642;59.126;37.876;2022-09-17T04:31:53;97888.63;;;11.78;76.68
67842;BME280;54642;59.126;37.876;2022-09-17T04:34:19;97864.63;;;11.54;76.73
67842;BME280;54642;59.126;37.876;2022-09-17T04:36:44;97899.28;;;11.72;76.73
67842;BME280;54642;59.126;37.876;2022-09-17T04:39:10;97895.06;;;11.69;76.82
67842;BME280;54642;59.126;37.876;2022-09-17T04:41:36;97850.41;;;11.42;77.04
67842;BME280;54642;59.126;37.876;2022-09-17T04:44:02;97895.81;;;11.71;76.85
67842;BME280;54642;59.126;37.876;2022-09-17T04:46:28;97896.63;;;11.73;76.98
67842;BME280;54642;59.126;37.876;2022-09-17T04:48:54;97849.59;;;11.41;77.02
67842;BME280;54642;59.126;37.876;2022-09-17T04:51:20;97902.66;;;11.74;76.91
67842;BME280;54642;59.126;37.876;2022-09-17T04:53:46;97915.50;;;11.77;77.06
67842;BME280;54642;59.126;37.876;2022-09-17T04:56:12;97911.91;;;11.79;76.84
67842;BME280;54642;59.126;37.876;2022-09-17T04:58:37;97858.44;;;11.56;76.80
67842;BME280;54642;59.126;37.876;2022-09-17T05:01:03;97904.13;;;11.79;76.88
67842;BME280;54642;59.126;37.876;2022-09-17T05:03:29;97919.28;;;11.89;76.81
67842;BME280;54642;59.126;37.876;2022-09-17T05:05:55;97852.81;;;11.47;76.74
67842;BME280;54642;59.126;37.876;2022-09-17T05:08:21;97933.44;;;11.81;76.86
67842;BME280;54642;59.126;37.876;2022-09-17T05:10:49;97923.13;;;11.80;76.70
67842;BME280;54642;59.126;37.876;2022-09-17T05:13:16;97936.03;;;11.81;76.77
67842;BME280;54642;59.126;37.876;2022-09-17T05:15:43;97935.13;;;11.82;76.95
67842;BME280;54642;59.126;37.876;2022-09-17T05:18:09;97918.78;;;11.80;76.87
67842;BME280;54642;59.126;37.876;2022-09-17T05:20:35;97936.63;;;11.88;76.99
67842;BME280;54642;59.126;37.876;2022-09-17T05:23:01;97938.56;;;11.83;76.90
67842;BME280;54642;59.126;37.876;2022-09-17T05:25:27;97941.28;;;11.80;76.82
67842;BME280;54642;59.126;37.876;2022-09-17T05:27:53;97938.28;;;11.89;76.78
67842;BME280;54642;59.126;37.876;2022-09-17T05:30:19;97935.59;;;11.92;76.81
67842;BME280;54642;59.126;37.876;2022-09-17T05:32:45;97933.00;;;11.92;76.63
67842;BME280;54642;59.126;37.876;2022-09-17T05:35:11;97933.09;;;11.89;76.71
67842;BME280;54642;59.126;37.876;2022-09-17T05:37:37;97938.28;;;11.89;76.78
67842;BME280;54642;59.126;37.876;2022-09-17T05:40:04;97922.16;;;11.82;76.71
67842;BME280;54642;59.126;37.876;2022-09-17T05:42:31;97933.09;;;11.89;76.80
67842;BME280;54642;59.126;37.876;2022-09-17T05:44:57;97934.22;;;11.83;76.49
67842;BME280;54642;59.126;37.876;2022-09-17T05:47:23;97935.13;;;11.82;76.50
67842;BME280;54642;59.126;37.876;2022-09-17T05:49:49;97864.22;;;11.42;76.52
67842;BME280;54642;59.126;37.876;2022-09-17T05:52:15;97947.72;;;11.92;76.56
67842;BME280;54642;59.126;37.876;2022-09-17T05:54:41;97953.03;;;11.89;76.51
67842;BME280;54642;59.126;37.876;2022-09-17T05:57:07;97952.31;;;11.85;76.54
67842;BME280;54642;59.126;37.876;2022-09-17T05:59:33;97958.28;;;11.87;76.54
67842;BME280;54642;59.126;37.876;2022-09-17T06:02:00;97953.03;;;11.89;76.72
67842;BME280;54642;59.126;37.876;2022-09-17T06:04:26;97953.94;;;11.88;76.80
67842;BME280;54642;59.126;37.876;2022-09-17T06:06:52;97950.41;;;11.89;76.62
67842;BME280;54642;59.126;37.876;2022-09-17T06:09:17;97878.31;;;11.37;76.63
67842;BME280;54642;59.126;37.876;2022-09-17T06:11:43;97950.91;;;11.78;76.68
67842;BME280;54642;59.126;37.876;2022-09-17T06:14:09;97955.38;;;11.74;76.64
67842;BME280;54642;59.126;37.876;2022-09-17T06:16:35;97880.41;;;11.29;76.96
67842;BME280;54642;59.126;37.876;2022-09-17T06:19:01;97961.84;;;11.85;76.69
67842;BME280;54642;59.126;37.876;2022-09-17T06:21:28;97880.97;;;11.35;76.60
67842;BME280;54642;59.126;37.876;2022-09-17T06:23:54;97958.50;;;11.82;76.63
67842;BME280;54642;59.126;37.876;2022-09-17T06:26:20;97952.00;;;11.72;76.81
67842;BME280;54642;59.126;37.876;2022-09-17T06:28:46;97964.69;;;11.78;76.88
67842;BME280;54642;59.126;37.876;2022-09-17T06:31:12;97952.91;;;11.71;76.96
67842;BME280;54642;59.126;37.876;2022-09-17T06:33:38;97955.31;;;11.76;76.73
67842;BME280;54642;59.126;37.876;2022-09-17T06:36:06;97933.25;;;11.66;76.68
67842;BME280;54642;59.126;37.876;2022-09-17T06:38:34;97948.63;;;11.70;76.48
67842;BME280;54642;59.126;37.876;2022-09-17T06:41:01;97952.84;;;11.73;76.56
67842;BME280;54642;59.126;37.876;2022-09-17T06:43:27;97978.38;;;11.82;76.87
67842;BME280;54642;59.126;37.876;2022-09-17T06:45:54;97964.69;;;11.78;76.86
67842;BME280;54642;59.126;37.876;2022-09-17T06:48:21;97963.81;;;11.79;76.92
67842;BME280;54642;59.126;37.876;2022-09-17T06:50:48;97969.72;;;11.83;76.88
67842;BME280;54642;59.126;37.876;2022-09-17T06:53:14;97974.53;;;11.92;76.75
67842;BME280;54642;59.126;37.876;2022-09-17T06:55:40;97965.22;;;11.87;76.89
67842;BME280;54642;59.126;37.876;2022-09-17T06:58:06;97966.66;;;11.94;76.80
67842;BME280;54642;59.126;37.876;2022-09-17T07:00:32;97972.38;;;12.02;76.75
67842;BME280;54642;59.126;37.876;2022-09-17T07:02:59;97951.34;;;11.88;76.50
67842;BME280;54642;59.126;37.876;2022-09-17T07:05:27;97984.56;;;12.00;76.46
67842;BME280;54642;59.126;37.876;2022-09-17T07:07:53;97972.50;;;11.99;76.47
67842;BME280;54642;59.126;37.876;2022-09-17T07:10:20;97962.38;;;11.93;76.41
67842;BME280;54642;59.126;37.876;2022-09-17T07:12:48;97934.91;;;11.68;76.39
67842;BME280;54642;59.126;37.876;2022-09-17T07:15:14;97979.53;;;11.97;76.58
67842;BME280;54642;59.126;37.876;2022-09-17T07:17:41;97931.19;;;11.74;76.37
67842;BME280;54642;59.126;37.876;2022-09-17T07:20:09;97926.06;;;11.72;76.10
67842;BME280;54642;59.126;37.876;2022-09-17T07:22:36;97977.63;;;12.00;76.30
67842;BME280;54642;59.126;37.876;2022-09-17T07:25:02;97937.09;;;11.77;76.38
67842;BME280;54642;59.126;37.876;2022-09-17T07:27:29;97973.16;;;12.04;76.29
67842;BME280;54642;59.126;37.876;2022-09-17T07:29:55;97984.25;;;12.08;76.41
67842;BME280;54642;59.126;37.876;2022-09-17T07:32:21;97972.03;;;12.10;76.02
67842;BME280;54642;59.126;37.876;2022-09-17T07:34:48;97986.34;;;12.18;76.22
67842;BME280;54642;59.126;37.876;2022-09-17T07:37:14;97988.59;;;12.26;76.28
67842;BME280;54642;59.126;37.876;2022-09-17T07:39:40;97985.81;;;12.31;75.86
67842;BME280;54642;59.126;37.876;2022-09-17T07:42:07;97974.00;;;12.24;75.62
67842;BME280;54642;59.126;37.876;2022-09-17T07:44:33;97964.81;;;12.16;75.73
67842;BME280;54642;59.126;37.876;2022-09-17T07:46:58;97992.41;;;12.38;75.56
67842;BME280;54642;59.126;37.876;2022-09-17T07:49:25;97987.06;;;12.41;75.24
67842;BME280;54642;59.126;37.876;2022-09-17T07:51:51;97970.38;;;12.47;75.37
67842;BME280;54642;59.126;37.876;2022-09-17T07:54:17;97985.03;;;12.67;74.96
67842;BME280;54642;59.126;37.876;2022-09-17T07:56:43;97982.06;;;12.74;74.62
67842;BME280;54642;59.126;37.876;2022-09-17T07:59:09;97980.78;;;12.83;74.41
67842;BME280;54642;59.126;37.876;2022-09-17T08:01:35;97980.78;;;12.83;74.25
67842;BME280;54642;59.126;37.876;2022-09-17T08:04:02;97990.28;;;12.84;74.36
67842;BME280;54642;59.126;37.876;2022-09-17T08:06:28;97953.22;;;12.62;74.24
67842;BME280;54642;59.126;37.876;2022-09-17T08:08:58;97984.59;;;12.76;74.26
67842;BME280;54642;59.126;37.876;2022-09-17T08:11:28;97994.47;;;12.87;74.28
67842;BME280;54642;59.126;37.876;2022-09-17T08:13:54;97983.94;;;12.90;74.36
67842;BME280;54642;59.126;37.876;2022-09-17T08:16:21;97984.00;;;12.88;74.43
67842;BME280;54642;59.126;37.876;2022-09-17T08:18:52;97988.16;;;12.92;74.56
67842;BME280;54642;59.126;37.876;2022-09-17T08:21:19;97956.38;;;12.68;74.46
67842;BME280;54642;59.126;37.876;2022-09-17T08:23:45;97997.78;;;12.90;74.39
67842;BME280;54642;59.126;37.876;2022-09-17T08:26:16;97999.53;;;12.90;74.81
67842;BME280;54642;59.126;37.876;2022-09-17T08:28:47;97985.78;;;12.88;74.56
67842;BME280;54642;59.126;37.876;2022-09-17T08:31:15;97963.19;;;12.71;74.38
67842;BME280;54642;59.126;37.876;2022-09-17T08:33:42;97994.47;;;12.87;74.49
67842;BME280;54642;59.126;37.876;2022-09-17T08:36:10;98006.34;;;12.92;74.68
67842;BME280;54642;59.126;37.876;2022-09-17T08:38:36;97997.34;;;13.00;74.27
67842;BME280;54642;59.126;37.876;2022-09-17T08:44:06;98004.09;;;13.21;74.20
67842;BME280;54642;59.126;37.876;2022-09-17T08:49:27;97998.06;;;13.21;73.90
67842;BME280;54642;59.126;37.876;2022-09-17T08:57:46;98010.88;;;13.43;73.13
67842;BME280;54642;59.126;37.876;2022-09-17T09:00:21;98001.09;;;13.48;73.17
67842;BME280;54642;59.126;37.876;2022-09-17T09:05:47;98010.44;;;13.69;72.61
67842;BME280;54642;59.126;37.876;2022-09-17T09:10:52;98001.72;;;13.70;72.28
67842;BME280;54642;59.126;37.876;2022-09-17T09:13:22;97968.28;;;13.45;72.32
67842;BME280;54642;59.126;37.876;2022-09-17T09:15:59;97948.44;;;13.43;72.22
67842;BME280;54642;59.126;37.876;2022-09-17T09:18:34;98006.09;;;13.70;72.07
67842;BME280;54642;59.126;37.876;2022-09-17T09:21:11;98021.44;;;13.75;72.48
67842;BME280;54642;59.126;37.876;2022-09-17T09:24:08;97994.81;;;13.69;72.50
67842;BME280;54642;59.126;37.876;2022-09-17T09:26:46;98009.53;;;13.70;72.36
67842;BME280;54642;59.126;37.876;2022-09-17T09:34:27;98007.22;;;13.64;72.81
67842;BME280;54642;59.126;37.876;2022-09-17T09:37:43;98005.69;;;13.78;72.16
67842;BME280;54642;59.126;37.876;2022-09-17T09:39:52;98014.59;;;13.73;72.79
67842;BME280;54642;59.126;37.876;2022-09-17T09:44:57;98020.84;;;13.69;72.51
67842;BME280;54642;59.126;37.876;2022-09-17T09:56:27;98019.94;;;13.70;72.28
67842;BME280;54642;59.126;37.876;2022-09-17T09:58:57;98020.38;;;13.79;72.19
67842;BME280;54642;59.126;37.876;2022-09-17T10:01:26;98011.66;;;13.80;71.82
67842;BME280;54642;59.126;37.876;2022-09-17T10:03:53;98001.84;;;13.67;72.01
67842;BME280;54642;59.126;37.876;2022-09-17T10:06:22;98002.63;;;13.69;71.76
67842;BME280;54642;59.126;37.876;2022-09-17T10:11:29;98017.00;;;13.77;72.07
67842;BME280;54642;59.126;37.876;2022-09-17T10:14:30;98021.53;;;13.73;72.37
67842;BME280;54642;59.126;37.876;2022-09-17T10:17:20;98037.75;;;13.78;72.34
67842;BME280;54642;59.126;37.876;2022-09-17T10:20:11;98034.75;;;13.86;72.13
67842;BME280;54642;59.126;37.876;2022-09-17T10:22:42;98031.84;;;13.92;72.12
67842;BME280;54642;59.126;37.876;2022-09-17T10:25:32;98030.28;;;14.05;71.70
67842;BME280;54642;59.126;37.876;2022-09-17T10:28:02;98022.09;;;14.13;71.32
67842;BME280;54642;59.126;37.876;2022-09-17T10:30:30;98014.94;;;14.01;71.24
67842;BME280;54642;59.126;37.876;2022-09-17T10:33:24;98032.75;;;14.08;70.99
67842;BME280;54642;59.126;37.876;2022-09-17T10:36:07;98033.09;;;14.02;71.11
67842;BME280;54642;59.126;37.876;2022-09-17T10:38:40;98033.16;;;14.01;70.82
67842;BME280;54642;59.126;37.876;2022-09-17T10:43:38;98034.75;;;13.86;71.03
67842;BME280;54642;59.126;37.876;2022-09-17T10:46:08;98045.97;;;13.88;71.02
67842;BME280;54642;59.126;37.876;2022-09-17T10:48:42;98016.72;;;13.83;70.85
67842;BME280;54642;59.126;37.876;2022-09-17T10:51:09;98035.69;;;14.02;70.77
67842;BME280;54642;59.126;37.876;2022-09-17T10:54:00;98050.91;;;14.10;70.67
67842;BME280;54642;59.126;37.876;2022-09-17T10:56:35;98061.63;;;14.04;70.35
67842;BME280;54642;59.126;37.876;2022-09-17T11:10:28;98058.97;;;13.70;70.73
67842;BME280;54642;59.126;37.876;2022-09-17T11:16:56;98073.59;;;13.73;70.74
67842;BME280;54642;59.126;37.876;2022-09-17T11:21:51;98043.91;;;13.60;70.65
67842;BME280;54642;59.126;37.876;2022-09-17T11:27:20;98067.41;;;13.76;70.66
67842;BME280;54642;59.126;37.876;2022-09-17T11:30:16;98077.63;;;13.79;70.86
67842;BME280;54642;59.126;37.876;2022-09-17T11:35:45;98069.25;;;13.73;70.76
67842;BME280;54642;59.126;37.876;2022-09-17T11:41:09;98066.78;;;13.70;70.48
67842;BME280;54642;59.126;37.876;2022-09-17T11:43:40;98063.50;;;13.67;70.91
67842;BME280;54642;59.126;37.876;2022-09-17T11:46:31;98030.78;;;13.44;70.59
67842;BME280;54642;59.126;37.876;2022-09-17T11:49:04;98080.84;;;13.66;70.74
67842;BME280;54642;59.126;37.876;2022-09-17T11:51:37;98068.91;;;13.62;70.89
67842;BME280;54642;59.126;37.876;2022-09-17T11:54:06;98073.91;;;13.67;70.97
67842;BME280;54642;59.126;37.876;2022-09-17T11:56:43;98071.22;;;13.68;71.10
67842;BME280;54642;59.126;37.876;2022-09-17T11:59:14;98078.72;;;13.75;70.82
67842;BME280;54642;59.126;37.876;2022-09-17T12:01:59;98075.97;;;13.78;71.00
67842;BME280;54642;59.126;37.876;2022-09-17T12:12:57;98050.59;;;13.46;71.17
67842;BME280;54642;59.126;37.876;2022-09-17T12:15:27;98045.72;;;13.40;71.31
67842;BME280;54642;59.126;37.876;2022-09-17T12:18:23;98084.47;;;13.64;71.42
67842;BME280;54642;59.126;37.876;2022-09-17T12:20:56;98089.81;;;13.61;71.84
67842;BME280;54642;59.126;37.876;2022-09-17T12:26:39;98089.88;;;13.59;71.71
67842;BME280;54642;59.126;37.876;2022-09-17T12:50:43;98097.81;;;13.39;74.62
67842;BME280;54642;59.126;37.876;2022-09-17T12:53:28;98110.19;;;13.33;74.58
67842;BME280;54642;59.126;37.876;2022-09-17T13:01:19;98105.84;;;13.15;74.96
67842;BME280;54642;59.126;37.876;2022-09-17T13:03:58;98078.00;;;12.98;75.14
67842;BME280;54642;59.126;37.876;2022-09-17T13:12:44;98119.41;;;13.22;75.45
67842;BME280;54642;59.126;37.876;2022-09-17T13:15:29;98130.41;;;13.27;75.43
67842;BME280;54642;59.126;37.876;2022-09-17T13:23:12;98121.91;;;13.23;75.71
67842;BME280;54642;59.126;37.876;2022-09-17T13:25:50;98120.94;;;13.26;75.71
67842;BME280;54642;59.126;37.876;2022-09-17T13:28:19;98122.78;;;13.24;75.51
67842;BME280;54642;59.126;37.876;2022-09-17T13:30:57;98113.41;;;13.20;75.70
67842;BME280;54642;59.126;37.876;2022-09-17T13:33:50;98119.94;;;13.28;75.52
67842;BME280;54642;59.126;37.876;2022-09-17T13:39:00;98114.97;;;13.24;75.62
67842;BME280;54642;59.126;37.876;2022-09-17T13:41:27;98112.56;;;13.19;75.43
67842;BME280;54642;59.126;37.876;2022-09-17T13:43:54;98105.00;;;13.14;75.48
67842;BME280;54642;59.126;37.876;2022-09-17T13:46:23;98133.88;;;13.27;75.88
67842;BME280;54642;59.126;37.876;2022-09-17T13:48:56;98135.63;;;13.27;75.42
67842;BME280;54642;59.126;37.876;2022-09-17T13:53:59;98057.28;;;12.96;75.68
67842;BME280;54642;59.126;37.876;2022-09-17T13:56:29;98136.25;;;13.51;75.50
67842;BME280;54642;59.126;37.876;2022-09-17T13:59:15;98135.06;;;13.58;75.46
67842;BME280;54642;59.126;37.876;2022-09-17T14:15:52;98090.00;;;13.39;74.46
67842;BME280;54642;59.126;37.876;2022-09-17T14:21:35;98130.59;;;13.60;74.73
67842;BME280;54642;59.126;37.876;2022-09-17T14:35:33;98144.44;;;13.43;73.81
67842;BME280;54642;59.126;37.876;2022-09-17T14:40:43;98154.84;;;13.43;73.90
67842;BME280;54642;59.126;37.876;2022-09-17T14:43:38;98138.81;;;13.33;73.83
67842;BME280;54642;59.126;37.876;2022-09-17T14:46:02;98142.94;;;13.38;74.01
67842;BME280;54642;59.126;37.876;2022-09-17T14:48:34;98150.41;;;13.45;73.89
67842;BME280;54642;59.126;37.876;2022-09-17T14:53:43;98163.19;;;13.50;73.88
67842;BME280;54642;59.126;37.876;2022-09-17T14:56:12;98145.41;;;13.41;73.44
67842;BME280;54642;59.126;37.876;2022-09-17T14:58:41;98154.75;;;13.45;73.79
67842;BME280;54642;59.126;37.876;2022-09-17T15:01:21;98155.69;;;13.44;73.66
67842;BME280;54642;59.126;37.876;2022-09-17T15:03:48;98168.00;;;13.40;73.95
67842;BME280;54642;59.126;37.876;2022-09-17T15:06:25;98156.06;;;13.36;73.50
67842;BME280;54642;59.126;37.876;2022-09-17T15:08:56;98168.06;;;13.39;73.69
67842;BME280;54642;59.126;37.876;2022-09-17T15:11:22;98147.72;;;13.28;73.70
67842;BME280;54642;59.126;37.876;2022-09-17T15:13:51;98126.84;;;13.10;73.49
67842;BME280;54642;59.126;37.876;2022-09-17T15:16:22;98162.31;;;13.30;73.72
67842;BME280;54642;59.126;37.876;2022-09-17T15:19:10;98146.03;;;13.27;73.87
67842;BME280;54642;59.126;37.876;2022-09-17T15:21:41;98168.81;;;13.41;73.57
67842;BME280;54642;59.126;37.876;2022-09-17T15:26:56;98182.13;;;13.34;73.50
67842;BME280;54642;59.126;37.876;2022-09-17T15:29:26;98177.94;;;13.30;73.61
67842;BME280;54642;59.126;37.876;2022-09-17T15:31:53;98168.59;;;13.26;73.72
67842;BME280;54642;59.126;37.876;2022-09-17T15:34:21;98183.97;;;13.32;73.62
67842;BME280;54642;59.126;37.876;2022-09-17T15:37:16;98187.72;;;13.25;73.73
67842;BME280;54642;59.126;37.876;2022-09-17T15:39:46;98139.50;;;12.99;73.63
67842;BME280;54642;59.126;37.876;2022-09-17T15:42:33;98190.41;;;13.24;73.57
67842;BME280;54642;59.126;37.876;2022-09-17T15:45:18;98188.84;;;13.20;73.65
67842;BME280;54642;59.126;37.876;2022-09-17T15:47:50;98172.94;;;13.07;73.82
67842;BME280;54642;59.126;37.876;2022-09-17T15:50:24;98198.63;;;13.14;73.97
67842;BME280;54642;59.126;37.876;2022-09-17T15:53:12;98204.59;;;13.16;73.86
67842;BME280;54642;59.126;37.876;2022-09-17T15:55:45;98186.38;;;12.97;73.96
67842;BME280;54642;59.126;37.876;2022-09-17T15:58:27;98174.03;;;12.82;74.24
67842;BME280;54642;59.126;37.876;2022-09-17T16:11:28;98194.47;;;12.91;74.38
67842;BME280;54642;59.126;37.876;2022-09-17T16:13:56;98203.72;;;12.97;74.53
67842;BME280;54642;59.126;37.876;2022-09-17T16:16:36;98183.41;;;12.86;74.84
67842;BME280;54642;59.126;37.876;2022-09-17T16:19:03;98203.22;;;12.89;74.77
67842;BME280;54642;59.126;37.876;2022-09-17T16:21:30;98215.75;;;13.00;74.49
67842;BME280;54642;59.126;37.876;2022-09-17T16:23:56;98199.50;;;12.94;74.60
67842;BME280;54642;59.126;37.876;2022-09-17T16:26:32;98209.78;;;12.97;74.94
67842;BME280;54642;59.126;37.876;2022-09-17T16:29:04;98203.72;;;12.97;74.80
67842;BME280;54642;59.126;37.876;2022-09-17T16:31:32;98213.25;;;12.96;74.90
67842;BME280;54642;59.126;37.876;2022-09-17T16:33:58;98227.84;;;13.01;74.97
67842;BME280;54642;59.126;37.876;2022-09-17T16:36:25;98213.44;;;12.93;74.86
67842;BME280;54642;59.126;37.876;2022-09-17T16:38:51;98234.22;;;12.93;75.29
67842;BME280;54642;59.126;37.876;2022-09-17T16:41:17;98240.19;;;12.95;75.47
67842;BME280;54642;59.126;37.876;2022-09-17T16:43:43;98231.69;;;12.92;75.32